Charleston Heights, South Carolina
Current Conditions -  °F | °C
As of 2:56 PM on Monday 26 Jan 2015 (Local Time) from KCHS Reporting Station
Broken Clouds Broken Clouds  
Wind Chill: 56°   Ceiling: 6000
Heat Index: 56°   Visibility: 10mi
Dew Point: 39°   Wind: 12mph
Humidity: 53%   Direction: 290°WNW
Pressure: 29.63"   Gusts: NA
Location:  32.8713°N, 80.0388°W
Report Text: KCHS 261956Z 29010KT 10SM SCT045 BKN060 13/04 A2963 RMK AO2 SLP034 T01330039
Loading
Personal Weather Stations






























Interactive Weather Map New forecast layout! Learn more

10-Day Weather Forecast

Advertisements
Track Severe Weather on mobile